sensor_id;sensor_type;location;lat;lon;timestamp;P1;durP1;ratioP1;P2;durP2;ratioP2
12838;SDS011;6486;51.034;5.262;2023-04-15T00:00:40;1.80;;;1.67;;
12838;SDS011;6486;51.034;5.262;2023-04-15T00:03:06;1.53;;;1.43;;
12838;SDS011;6486;51.034;5.262;2023-04-15T00:05:32;2.27;;;1.93;;
12838;SDS011;6486;51.034;5.262;2023-04-15T00:07:58;1.47;;;1.33;;
12838;SDS011;6486;51.034;5.262;2023-04-15T00:10:25;3.23;;;1.67;;
12838;SDS011;6486;51.034;5.262;2023-04-15T00:12:51;1.80;;;0.90;;
12838;SDS011;6486;51.034;5.262;2023-04-15T00:15:17;2.20;;;1.93;;
12838;SDS011;6486;51.034;5.262;2023-04-15T00:17:43;4.30;;;1.87;;
12838;SDS011;6486;51.034;5.262;2023-04-15T00:20:08;1.70;;;1.60;;
12838;SDS011;6486;51.034;5.262;2023-04-15T00:22:34;3.17;;;1.93;;
12838;SDS011;6486;51.034;5.262;2023-04-15T00:25:00;4.70;;;2.77;;
12838;SDS011;6486;51.034;5.262;2023-04-15T00:27:26;3.50;;;2.40;;
12838;SDS011;6486;51.034;5.262;2023-04-15T00:29:52;1.90;;;1.57;;
12838;SDS011;6486;51.034;5.262;2023-04-15T00:32:17;1.50;;;1.40;;
12838;SDS011;6486;51.034;5.262;2023-04-15T00:34:44;1.50;;;1.40;;
12838;SDS011;6486;51.034;5.262;2023-04-15T00:37:10;1.70;;;1.60;;
12838;SDS011;6486;51.034;5.262;2023-04-15T00:39:36;6.90;;;2.00;;
12838;SDS011;6486;51.034;5.262;2023-04-15T00:42:03;1.13;;;1.00;;
12838;SDS011;6486;51.034;5.262;2023-04-15T00:44:29;3.53;;;1.83;;
12838;SDS011;6486;51.034;5.262;2023-04-15T00:46:56;1.80;;;1.70;;
12838;SDS011;6486;51.034;5.262;2023-04-15T00:49:23;2.83;;;1.43;;
12838;SDS011;6486;51.034;5.262;2023-04-15T00:51:49;3.00;;;2.23;;
12838;SDS011;6486;51.034;5.262;2023-04-15T00:54:15;1.87;;;1.03;;
12838;SDS011;6486;51.034;5.262;2023-04-15T00:56:41;2.10;;;1.67;;
12838;SDS011;6486;51.034;5.262;2023-04-15T00:59:07;7.73;;;1.20;;
12838;SDS011;6486;51.034;5.262;2023-04-15T01:01:36;1.27;;;1.13;;
12838;SDS011;6486;51.034;5.262;2023-04-15T01:04:02;1.40;;;1.30;;
12838;SDS011;6486;51.034;5.262;2023-04-15T01:06:28;2.20;;;1.83;;
12838;SDS011;6486;51.034;5.262;2023-04-15T01:08:54;2.00;;;1.50;;
12838;SDS011;6486;51.034;5.262;2023-04-15T01:11:21;1.50;;;1.40;;
12838;SDS011;6486;51.034;5.262;2023-04-15T01:13:48;0.73;;;0.63;;
12838;SDS011;6486;51.034;5.262;2023-04-15T01:16:14;2.40;;;1.43;;
12838;SDS011;6486;51.034;5.262;2023-04-15T01:18:41;0.93;;;0.77;;
12838;SDS011;6486;51.034;5.262;2023-04-15T01:21:07;0.87;;;0.87;;
12838;SDS011;6486;51.034;5.262;2023-04-15T01:23:34;0.90;;;0.87;;
12838;SDS011;6486;51.034;5.262;2023-04-15T01:26:02;1.10;;;1.00;;
12838;SDS011;6486;51.034;5.262;2023-04-15T01:28:28;0.73;;;0.73;;
12838;SDS011;6486;51.034;5.262;2023-04-15T01:31:13;3.33;;;1.17;;
12838;SDS011;6486;51.034;5.262;2023-04-15T01:33:39;1.07;;;1.07;;
12838;SDS011;6486;51.034;5.262;2023-04-15T01:36:07;0.90;;;0.53;;
12838;SDS011;6486;51.034;5.262;2023-04-15T01:38:34;1.20;;;0.90;;
12838;SDS011;6486;51.034;5.262;2023-04-15T01:41:00;10.90;;;2.37;;
12838;SDS011;6486;51.034;5.262;2023-04-15T01:43:26;1.03;;;1.03;;
12838;SDS011;6486;51.034;5.262;2023-04-15T01:45:52;1.07;;;0.90;;
12838;SDS011;6486;51.034;5.262;2023-04-15T01:48:18;0.73;;;0.70;;
12838;SDS011;6486;51.034;5.262;2023-04-15T01:50:43;0.83;;;0.83;;
12838;SDS011;6486;51.034;5.262;2023-04-15T01:53:09;0.80;;;0.80;;
12838;SDS011;6486;51.034;5.262;2023-04-15T01:55:35;6.67;;;1.73;;
12838;SDS011;6486;51.034;5.262;2023-04-15T01:58:01;1.00;;;0.60;;
12838;SDS011;6486;51.034;5.262;2023-04-15T02:00:27;3.53;;;0.80;;
12838;SDS011;6486;51.034;5.262;2023-04-15T02:02:54;3.60;;;1.70;;
12838;SDS011;6486;51.034;5.262;2023-04-15T02:05:20;3.30;;;0.80;;
12838;SDS011;6486;51.034;5.262;2023-04-15T02:07:45;2.90;;;2.07;;
12838;SDS011;6486;51.034;5.262;2023-04-15T02:10:12;0.93;;;0.67;;
12838;SDS011;6486;51.034;5.262;2023-04-15T02:12:38;1.23;;;1.20;;
12838;SDS011;6486;51.034;5.262;2023-04-15T02:15:04;2.60;;;0.80;;
12838;SDS011;6486;51.034;5.262;2023-04-15T02:17:33;1.03;;;0.97;;
12838;SDS011;6486;51.034;5.262;2023-04-15T02:19:59;2.93;;;1.00;;
12838;SDS011;6486;51.034;5.262;2023-04-15T02:22:25;0.87;;;0.87;;
12838;SDS011;6486;51.034;5.262;2023-04-15T02:24:51;0.40;;;0.40;;
12838;SDS011;6486;51.034;5.262;2023-04-15T02:27:16;0.70;;;0.70;;
12838;SDS011;6486;51.034;5.262;2023-04-15T02:29:45;0.47;;;0.40;;
12838;SDS011;6486;51.034;5.262;2023-04-15T02:32:11;1.03;;;0.60;;
12838;SDS011;6486;51.034;5.262;2023-04-15T02:34:40;1.17;;;0.53;;
12838;SDS011;6486;51.034;5.262;2023-04-15T02:37:10;5.93;;;0.57;;
12838;SDS011;6486;51.034;5.262;2023-04-15T02:39:36;2.20;;;1.07;;
12838;SDS011;6486;51.034;5.262;2023-04-15T02:42:03;0.73;;;0.70;;
12838;SDS011;6486;51.034;5.262;2023-04-15T02:44:30;1.97;;;1.10;;
12838;SDS011;6486;51.034;5.262;2023-04-15T02:46:56;6.07;;;0.77;;
12838;SDS011;6486;51.034;5.262;2023-04-15T02:49:22;0.67;;;0.67;;
12838;SDS011;6486;51.034;5.262;2023-04-15T02:51:49;0.77;;;0.73;;
12838;SDS011;6486;51.034;5.262;2023-04-15T02:54:18;0.60;;;0.60;;
12838;SDS011;6486;51.034;5.262;2023-04-15T02:56:45;5.03;;;1.20;;
12838;SDS011;6486;51.034;5.262;2023-04-15T02:59:13;0.93;;;0.50;;
12838;SDS011;6486;51.034;5.262;2023-04-15T03:01:39;2.50;;;1.33;;
12838;SDS011;6486;51.034;5.262;2023-04-15T03:04:05;1.40;;;0.87;;
12838;SDS011;6486;51.034;5.262;2023-04-15T03:06:32;0.50;;;0.50;;
12838;SDS011;6486;51.034;5.262;2023-04-15T03:08:58;0.57;;;0.57;;
12838;SDS011;6486;51.034;5.262;2023-04-15T03:11:24;0.30;;;0.30;;
12838;SDS011;6486;51.034;5.262;2023-04-15T03:13:51;1.83;;;0.73;;
12838;SDS011;6486;51.034;5.262;2023-04-15T03:16:17;0.67;;;0.60;;
12838;SDS011;6486;51.034;5.262;2023-04-15T03:18:42;1.23;;;0.50;;
12838;SDS011;6486;51.034;5.262;2023-04-15T03:21:08;4.63;;;1.27;;
12838;SDS011;6486;51.034;5.262;2023-04-15T03:23:33;0.50;;;0.50;;
12838;SDS011;6486;51.034;5.262;2023-04-15T03:26:02;1.57;;;1.07;;
12838;SDS011;6486;51.034;5.262;2023-04-15T03:28:28;0.87;;;0.87;;
12838;SDS011;6486;51.034;5.262;2023-04-15T03:30:55;3.57;;;1.20;;
12838;SDS011;6486;51.034;5.262;2023-04-15T03:33:20;1.57;;;0.43;;
12838;SDS011;6486;51.034;5.262;2023-04-15T03:35:46;1.73;;;1.60;;
12838;SDS011;6486;51.034;5.262;2023-04-15T03:38:11;1.63;;;0.70;;
12838;SDS011;6486;51.034;5.262;2023-04-15T03:40:37;4.90;;;1.93;;
12838;SDS011;6486;51.034;5.262;2023-04-15T03:43:06;2.90;;;1.60;;
12838;SDS011;6486;51.034;5.262;2023-04-15T03:45:31;3.47;;;0.83;;
12838;SDS011;6486;51.034;5.262;2023-04-15T03:47:57;0.63;;;0.63;;
12838;SDS011;6486;51.034;5.262;2023-04-15T03:50:23;0.70;;;0.70;;
12838;SDS011;6486;51.034;5.262;2023-04-15T03:52:48;2.00;;;0.83;;
12838;SDS011;6486;51.034;5.262;2023-04-15T03:55:14;1.60;;;0.70;;
12838;SDS011;6486;51.034;5.262;2023-04-15T03:57:40;2.03;;;1.10;;
12838;SDS011;6486;51.034;5.262;2023-04-15T04:00:06;0.97;;;0.80;;
12838;SDS011;6486;51.034;5.262;2023-04-15T04:02:35;1.87;;;1.27;;
12838;SDS011;6486;51.034;5.262;2023-04-15T04:05:01;1.70;;;0.73;;
12838;SDS011;6486;51.034;5.262;2023-04-15T04:07:27;0.67;;;0.67;;
12838;SDS011;6486;51.034;5.262;2023-04-15T04:09:53;1.00;;;0.77;;
12838;SDS011;6486;51.034;5.262;2023-04-15T04:12:21;1.67;;;1.10;;
12838;SDS011;6486;51.034;5.262;2023-04-15T04:14:46;2.83;;;1.27;;
12838;SDS011;6486;51.034;5.262;2023-04-15T04:17:12;0.50;;;0.50;;
12838;SDS011;6486;51.034;5.262;2023-04-15T04:19:37;2.20;;;0.53;;
12838;SDS011;6486;51.034;5.262;2023-04-15T04:22:03;2.87;;;1.37;;
12838;SDS011;6486;51.034;5.262;2023-04-15T04:24:29;1.23;;;1.20;;
12838;SDS011;6486;51.034;5.262;2023-04-15T04:26:55;2.63;;;0.50;;
12838;SDS011;6486;51.034;5.262;2023-04-15T04:29:21;2.90;;;0.53;;
12838;SDS011;6486;51.034;5.262;2023-04-15T04:31:46;0.87;;;0.60;;
12838;SDS011;6486;51.034;5.262;2023-04-15T04:34:12;3.23;;;0.90;;
12838;SDS011;6486;51.034;5.262;2023-04-15T04:36:38;7.90;;;1.27;;
12838;SDS011;6486;51.034;5.262;2023-04-15T04:39:04;0.90;;;0.90;;
12838;SDS011;6486;51.034;5.262;2023-04-15T04:41:30;2.63;;;1.33;;
12838;SDS011;6486;51.034;5.262;2023-04-15T04:43:56;1.47;;;0.90;;
12838;SDS011;6486;51.034;5.262;2023-04-15T04:46:21;0.80;;;0.80;;
12838;SDS011;6486;51.034;5.262;2023-04-15T04:48:47;0.83;;;0.70;;
12838;SDS011;6486;51.034;5.262;2023-04-15T04:51:13;3.80;;;1.50;;
12838;SDS011;6486;51.034;5.262;2023-04-15T04:53:39;0.80;;;0.70;;
12838;SDS011;6486;51.034;5.262;2023-04-15T04:56:04;0.50;;;0.50;;
12838;SDS011;6486;51.034;5.262;2023-04-15T04:58:30;1.20;;;0.50;;
12838;SDS011;6486;51.034;5.262;2023-04-15T05:00:56;0.83;;;0.83;;
12838;SDS011;6486;51.034;5.262;2023-04-15T05:03:22;6.27;;;2.03;;
12838;SDS011;6486;51.034;5.262;2023-04-15T05:05:48;7.43;;;2.27;;
12838;SDS011;6486;51.034;5.262;2023-04-15T05:08:14;0.40;;;0.40;;
12838;SDS011;6486;51.034;5.262;2023-04-15T05:10:40;0.93;;;0.73;;
12838;SDS011;6486;51.034;5.262;2023-04-15T05:13:06;0.40;;;0.40;;
12838;SDS011;6486;51.034;5.262;2023-04-15T05:15:31;1.53;;;0.83;;
12838;SDS011;6486;51.034;5.262;2023-04-15T05:17:58;2.87;;;0.70;;
12838;SDS011;6486;51.034;5.262;2023-04-15T05:20:24;0.50;;;0.50;;
12838;SDS011;6486;51.034;5.262;2023-04-15T05:22:50;0.70;;;0.70;;
12838;SDS011;6486;51.034;5.262;2023-04-15T05:25:15;1.47;;;0.90;;
12838;SDS011;6486;51.034;5.262;2023-04-15T05:27:41;0.80;;;0.80;;
12838;SDS011;6486;51.034;5.262;2023-04-15T05:30:07;0.90;;;0.87;;
12838;SDS011;6486;51.034;5.262;2023-04-15T05:32:33;1.80;;;1.33;;
12838;SDS011;6486;51.034;5.262;2023-04-15T05:34:59;0.77;;;0.77;;
12838;SDS011;6486;51.034;5.262;2023-04-15T05:37:25;3.03;;;2.07;;
12838;SDS011;6486;51.034;5.262;2023-04-15T05:39:51;0.73;;;0.73;;
12838;SDS011;6486;51.034;5.262;2023-04-15T05:42:16;0.53;;;0.53;;
12838;SDS011;6486;51.034;5.262;2023-04-15T05:44:42;1.60;;;0.83;;
12838;SDS011;6486;51.034;5.262;2023-04-15T05:47:07;0.67;;;0.63;;
12838;SDS011;6486;51.034;5.262;2023-04-15T05:49:34;1.70;;;1.30;;
12838;SDS011;6486;51.034;5.262;2023-04-15T05:52:00;1.47;;;1.20;;
12838;SDS011;6486;51.034;5.262;2023-04-15T05:54:25;1.33;;;1.23;;
12838;SDS011;6486;51.034;5.262;2023-04-15T05:56:51;1.73;;;1.47;;
12838;SDS011;6486;51.034;5.262;2023-04-15T05:59:17;2.07;;;1.23;;
12838;SDS011;6486;51.034;5.262;2023-04-15T06:01:43;3.30;;;1.43;;
12838;SDS011;6486;51.034;5.262;2023-04-15T06:04:09;3.80;;;2.33;;
12838;SDS011;6486;51.034;5.262;2023-04-15T06:06:35;3.77;;;1.57;;
12838;SDS011;6486;51.034;5.262;2023-04-15T06:09:02;2.43;;;1.43;;
12838;SDS011;6486;51.034;5.262;2023-04-15T06:11:28;2.10;;;1.77;;
12838;SDS011;6486;51.034;5.262;2023-04-15T06:13:53;1.50;;;1.10;;
12838;SDS011;6486;51.034;5.262;2023-04-15T06:16:19;1.77;;;1.63;;
12838;SDS011;6486;51.034;5.262;2023-04-15T06:18:44;1.20;;;1.10;;
12838;SDS011;6486;51.034;5.262;2023-04-15T06:21:10;4.23;;;1.80;;
12838;SDS011;6486;51.034;5.262;2023-04-15T06:23:36;1.70;;;1.43;;
12838;SDS011;6486;51.034;5.262;2023-04-15T06:26:01;1.73;;;1.63;;
12838;SDS011;6486;51.034;5.262;2023-04-15T06:28:27;2.07;;;1.43;;
12838;SDS011;6486;51.034;5.262;2023-04-15T06:30:53;5.77;;;1.13;;
12838;SDS011;6486;51.034;5.262;2023-04-15T06:33:19;1.87;;;1.77;;
12838;SDS011;6486;51.034;5.262;2023-04-15T06:35:45;2.47;;;2.30;;
12838;SDS011;6486;51.034;5.262;2023-04-15T06:38:11;2.77;;;1.80;;
12838;SDS011;6486;51.034;5.262;2023-04-15T06:40:37;2.20;;;1.53;;
12838;SDS011;6486;51.034;5.262;2023-04-15T06:43:02;3.77;;;2.37;;
12838;SDS011;6486;51.034;5.262;2023-04-15T06:45:28;2.03;;;1.90;;
12838;SDS011;6486;51.034;5.262;2023-04-15T06:47:55;2.83;;;1.57;;
12838;SDS011;6486;51.034;5.262;2023-04-15T06:50:21;1.57;;;1.23;;
12838;SDS011;6486;51.034;5.262;2023-04-15T06:52:47;3.03;;;2.37;;
12838;SDS011;6486;51.034;5.262;2023-04-15T06:55:12;3.63;;;2.37;;
12838;SDS011;6486;51.034;5.262;2023-04-15T06:57:38;2.37;;;1.87;;
12838;SDS011;6486;51.034;5.262;2023-04-15T07:00:04;3.03;;;2.10;;
12838;SDS011;6486;51.034;5.262;2023-04-15T07:02:32;1.97;;;1.43;;
12838;SDS011;6486;51.034;5.262;2023-04-15T07:04:58;1.23;;;1.13;;
12838;SDS011;6486;51.034;5.262;2023-04-15T07:07:23;1.97;;;1.87;;
12838;SDS011;6486;51.034;5.262;2023-04-15T07:09:49;4.93;;;1.97;;
12838;SDS011;6486;51.034;5.262;2023-04-15T07:12:16;4.20;;;1.70;;
12838;SDS011;6486;51.034;5.262;2023-04-15T07:14:42;3.87;;;1.50;;
12838;SDS011;6486;51.034;5.262;2023-04-15T07:17:08;6.03;;;2.20;;
12838;SDS011;6486;51.034;5.262;2023-04-15T07:19:33;2.37;;;1.03;;
12838;SDS011;6486;51.034;5.262;2023-04-15T07:21:59;4.67;;;2.10;;
12838;SDS011;6486;51.034;5.262;2023-04-15T07:24:25;4.23;;;2.00;;
12838;SDS011;6486;51.034;5.262;2023-04-15T07:26:52;1.83;;;1.40;;
12838;SDS011;6486;51.034;5.262;2023-04-15T07:29:18;3.00;;;2.03;;
12838;SDS011;6486;51.034;5.262;2023-04-15T07:31:44;2.13;;;1.90;;
12838;SDS011;6486;51.034;5.262;2023-04-15T07:34:10;2.40;;;2.20;;
12838;SDS011;6486;51.034;5.262;2023-04-15T07:36:35;4.10;;;1.87;;
12838;SDS011;6486;51.034;5.262;2023-04-15T07:39:01;3.17;;;1.60;;
12838;SDS011;6486;51.034;5.262;2023-04-15T07:41:28;3.07;;;1.77;;
12838;SDS011;6486;51.034;5.262;2023-04-15T07:43:54;1.70;;;1.47;;
12838;SDS011;6486;51.034;5.262;2023-04-15T07:46:20;3.53;;;1.60;;
12838;SDS011;6486;51.034;5.262;2023-04-15T07:48:47;4.70;;;1.70;;
12838;SDS011;6486;51.034;5.262;2023-04-15T07:51:13;2.97;;;1.60;;
12838;SDS011;6486;51.034;5.262;2023-04-15T07:53:39;2.37;;;1.67;;
12838;SDS011;6486;51.034;5.262;2023-04-15T07:56:04;2.80;;;1.83;;
12838;SDS011;6486;51.034;5.262;2023-04-15T07:58:30;2.13;;;1.77;;
12838;SDS011;6486;51.034;5.262;2023-04-15T08:00:56;5.30;;;1.87;;
12838;SDS011;6486;51.034;5.262;2023-04-15T08:03:21;2.43;;;1.40;;
12838;SDS011;6486;51.034;5.262;2023-04-15T08:05:47;5.00;;;2.00;;
12838;SDS011;6486;51.034;5.262;2023-04-15T08:08:13;4.07;;;2.07;;
12838;SDS011;6486;51.034;5.262;2023-04-15T08:10:39;2.40;;;2.20;;
12838;SDS011;6486;51.034;5.262;2023-04-15T08:13:05;3.17;;;1.93;;
12838;SDS011;6486;51.034;5.262;2023-04-15T08:15:30;1.93;;;1.40;;
12838;SDS011;6486;51.034;5.262;2023-04-15T08:17:57;3.17;;;1.70;;
12838;SDS011;6486;51.034;5.262;2023-04-15T08:20:24;1.90;;;1.50;;
12838;SDS011;6486;51.034;5.262;2023-04-15T08:22:50;2.70;;;1.80;;
12838;SDS011;6486;51.034;5.262;2023-04-15T08:25:16;2.27;;;1.10;;
12838;SDS011;6486;51.034;5.262;2023-04-15T08:27:43;4.00;;;2.10;;
12838;SDS011;6486;51.034;5.262;2023-04-15T08:30:08;2.17;;;1.57;;
12838;SDS011;6486;51.034;5.262;2023-04-15T08:32:34;2.13;;;1.53;;
12838;SDS011;6486;51.034;5.262;2023-04-15T08:35:00;2.50;;;1.40;;
12838;SDS011;6486;51.034;5.262;2023-04-15T08:37:25;10.03;;;2.40;;
12838;SDS011;6486;51.034;5.262;2023-04-15T08:39:51;0.80;;;0.80;;
12838;SDS011;6486;51.034;5.262;2023-04-15T08:42:18;2.63;;;1.30;;
12838;SDS011;6486;51.034;5.262;2023-04-15T08:44:51;1.23;;;1.13;;
12838;SDS011;6486;51.034;5.262;2023-04-15T08:47:19;2.87;;;2.10;;
12838;SDS011;6486;51.034;5.262;2023-04-15T08:49:48;2.13;;;0.93;;
12838;SDS011;6486;51.034;5.262;2023-04-15T08:52:17;1.90;;;1.30;;
12838;SDS011;6486;51.034;5.262;2023-04-15T08:54:44;1.17;;;1.00;;
12838;SDS011;6486;51.034;5.262;2023-04-15T08:57:10;2.83;;;1.10;;
12838;SDS011;6486;51.034;5.262;2023-04-15T08:59:36;1.43;;;0.80;;
12838;SDS011;6486;51.034;5.262;2023-04-15T09:02:02;1.17;;;0.80;;
12838;SDS011;6486;51.034;5.262;2023-04-15T09:04:28;3.13;;;1.67;;
12838;SDS011;6486;51.034;5.262;2023-04-15T09:06:54;1.73;;;0.80;;
12838;SDS011;6486;51.034;5.262;2023-04-15T09:09:21;1.57;;;1.03;;
12838;SDS011;6486;51.034;5.262;2023-04-15T09:11:46;0.70;;;0.60;;
12838;SDS011;6486;51.034;5.262;2023-04-15T09:14:13;0.73;;;0.73;;
12838;SDS011;6486;51.034;5.262;2023-04-15T09:16:55;0.90;;;0.90;;
12838;SDS011;6486;51.034;5.262;2023-04-15T09:19:22;1.67;;;1.17;;
12838;SDS011;6486;51.034;5.262;2023-04-15T09:21:55;2.43;;;1.43;;
12838;SDS011;6486;51.034;5.262;2023-04-15T09:24:22;1.33;;;1.13;;
12838;SDS011;6486;51.034;5.262;2023-04-15T09:26:51;1.03;;;1.00;;
12838;SDS011;6486;51.034;5.262;2023-04-15T09:29:18;5.03;;;1.60;;
12838;SDS011;6486;51.034;5.262;2023-04-15T09:31:44;1.10;;;1.10;;
12838;SDS011;6486;51.034;5.262;2023-04-15T09:34:10;1.33;;;1.23;;
12838;SDS011;6486;51.034;5.262;2023-04-15T09:36:55;0.80;;;0.80;;
12838;SDS011;6486;51.034;5.262;2023-04-15T09:39:22;1.60;;;1.30;;
12838;SDS011;6486;51.034;5.262;2023-04-15T09:42:03;2.23;;;0.73;;
12838;SDS011;6486;51.034;5.262;2023-04-15T09:44:30;3.13;;;1.47;;
12838;SDS011;6486;51.034;5.262;2023-04-15T09:46:56;1.07;;;0.97;;
12838;SDS011;6486;51.034;5.262;2023-04-15T09:49:21;1.20;;;1.03;;
12838;SDS011;6486;51.034;5.262;2023-04-15T09:51:47;1.10;;;1.00;;
12838;SDS011;6486;51.034;5.262;2023-04-15T09:54:17;1.77;;;1.17;;
12838;SDS011;6486;51.034;5.262;2023-04-15T09:56:45;1.40;;;0.80;;
12838;SDS011;6486;51.034;5.262;2023-04-15T09:59:11;1.87;;;0.87;;
12838;SDS011;6486;51.034;5.262;2023-04-15T10:01:37;0.60;;;0.60;;
12838;SDS011;6486;51.034;5.262;2023-04-15T10:04:05;0.80;;;0.80;;
12838;SDS011;6486;51.034;5.262;2023-04-15T10:06:31;0.90;;;0.77;;
12838;SDS011;6486;51.034;5.262;2023-04-15T10:08:57;1.40;;;0.93;;
12838;SDS011;6486;51.034;5.262;2023-04-15T10:11:26;1.80;;;1.00;;
12838;SDS011;6486;51.034;5.262;2023-04-15T10:13:53;0.87;;;0.60;;
12838;SDS011;6486;51.034;5.262;2023-04-15T10:16:20;0.90;;;0.60;;
12838;SDS011;6486;51.034;5.262;2023-04-15T10:18:49;0.77;;;0.60;;
12838;SDS011;6486;51.034;5.262;2023-04-15T10:21:18;0.87;;;0.30;;
12838;SDS011;6486;51.034;5.262;2023-04-15T10:23:46;1.43;;;0.57;;
12838;SDS011;6486;51.034;5.262;2023-04-15T10:26:12;0.53;;;0.40;;
12838;SDS011;6486;51.034;5.262;2023-04-15T10:28:39;0.40;;;0.40;;
12838;SDS011;6486;51.034;5.262;2023-04-15T10:31:05;0.30;;;0.30;;
12838;SDS011;6486;51.034;5.262;2023-04-15T10:33:32;3.73;;;0.63;;
12838;SDS011;6486;51.034;5.262;2023-04-15T10:35:59;0.33;;;0.33;;
12838;SDS011;6486;51.034;5.262;2023-04-15T10:38:32;0.30;;;0.30;;
12838;SDS011;6486;51.034;5.262;2023-04-15T10:43:44;0.63;;;0.50;;
12838;SDS011;6486;51.034;5.262;2023-04-15T10:46:23;0.27;;;0.27;;
12838;SDS011;6486;51.034;5.262;2023-04-15T10:49:00;0.10;;;0.10;;
12838;SDS011;6486;51.034;5.262;2023-04-15T10:51:44;1.13;;;0.70;;
12838;SDS011;6486;51.034;5.262;2023-04-15T10:57:13;0.17;;;0.13;;
12838;SDS011;6486;51.034;5.262;2023-04-15T11:00:00;0.53;;;0.50;;
12838;SDS011;6486;51.034;5.262;2023-04-15T11:02:40;0.30;;;0.30;;
12838;SDS011;6486;51.034;5.262;2023-04-15T11:05:47;0.80;;;0.50;;
12838;SDS011;6486;51.034;5.262;2023-04-15T11:08:13;5.93;;;0.67;;
12838;SDS011;6486;51.034;5.262;2023-04-15T11:23:30;0.73;;;0.73;;
12838;SDS011;6486;51.034;5.262;2023-04-15T11:25:56;0.60;;;0.30;;
12838;SDS011;6486;51.034;5.262;2023-04-15T11:28:24;0.50;;;0.30;;
12838;SDS011;6486;51.034;5.262;2023-04-15T11:30:54;0.13;;;0.13;;
12838;SDS011;6486;51.034;5.262;2023-04-15T11:33:20;0.43;;;0.43;;
12838;SDS011;6486;51.034;5.262;2023-04-15T11:35:46;0.73;;;0.40;;
12838;SDS011;6486;51.034;5.262;2023-04-15T11:38:13;0.33;;;0.33;;
12838;SDS011;6486;51.034;5.262;2023-04-15T11:40:39;0.20;;;0.20;;
12838;SDS011;6486;51.034;5.262;2023-04-15T11:43:06;0.70;;;0.57;;
12838;SDS011;6486;51.034;5.262;2023-04-15T11:45:33;0.30;;;0.30;;
12838;SDS011;6486;51.034;5.262;2023-04-15T11:48:09;1.10;;;0.60;;
12838;SDS011;6486;51.034;5.262;2023-04-15T11:50:37;0.67;;;0.50;;
12838;SDS011;6486;51.034;5.262;2023-04-15T11:53:10;0.67;;;0.40;;
12838;SDS011;6486;51.034;5.262;2023-04-15T11:55:46;0.57;;;0.43;;
12838;SDS011;6486;51.034;5.262;2023-04-15T12:00:46;0.23;;;0.23;;
12838;SDS011;6486;51.034;5.262;2023-04-15T12:08:46;0.60;;;0.60;;
12838;SDS011;6486;51.034;5.262;2023-04-15T12:11:20;0.70;;;0.43;;
12838;SDS011;6486;51.034;5.262;2023-04-15T12:13:55;2.33;;;0.97;;
12838;SDS011;6486;51.034;5.262;2023-04-15T12:16:23;1.80;;;0.30;;
12838;SDS011;6486;51.034;5.262;2023-04-15T12:18:50;0.10;;;0.10;;
12838;SDS011;6486;51.034;5.262;2023-04-15T12:21:23;0.40;;;0.40;;
12838;SDS011;6486;51.034;5.262;2023-04-15T12:23:51;0.40;;;0.20;;
12838;SDS011;6486;51.034;5.262;2023-04-15T12:26:24;0.40;;;0.40;;
12838;SDS011;6486;51.034;5.262;2023-04-15T12:28:55;0.73;;;0.20;;
12838;SDS011;6486;51.034;5.262;2023-04-15T12:31:29;0.67;;;0.67;;
12838;SDS011;6486;51.034;5.262;2023-04-15T12:33:55;0.37;;;0.37;;
12838;SDS011;6486;51.034;5.262;2023-04-15T12:36:22;0.67;;;0.20;;
12838;SDS011;6486;51.034;5.262;2023-04-15T12:38:48;0.30;;;0.30;;
12838;SDS011;6486;51.034;5.262;2023-04-15T12:41:13;0.20;;;0.20;;
12838;SDS011;6486;51.034;5.262;2023-04-15T12:43:39;0.40;;;0.30;;
12838;SDS011;6486;51.034;5.262;2023-04-15T12:46:06;0.30;;;0.30;;
12838;SDS011;6486;51.034;5.262;2023-04-15T12:48:32;0.37;;;0.30;;
12838;SDS011;6486;51.034;5.262;2023-04-15T12:50:58;0.37;;;0.20;;
12838;SDS011;6486;51.034;5.262;2023-04-15T12:53:24;0.97;;;0.30;;
12838;SDS011;6486;51.034;5.262;2023-04-15T12:55:50;0.27;;;0.27;;
12838;SDS011;6486;51.034;5.262;2023-04-15T12:58:16;0.77;;;0.30;;
12838;SDS011;6486;51.034;5.262;2023-04-15T13:00:41;0.43;;;0.30;;
12838;SDS011;6486;51.034;5.262;2023-04-15T13:03:07;0.20;;;0.17;;
12838;SDS011;6486;51.034;5.262;2023-04-15T13:05:33;0.23;;;0.23;;
12838;SDS011;6486;51.034;5.262;2023-04-15T13:08:00;0.30;;;0.20;;
12838;SDS011;6486;51.034;5.262;2023-04-15T13:10:26;0.50;;;0.50;;
12838;SDS011;6486;51.034;5.262;2023-04-15T13:12:53;0.50;;;0.40;;
12838;SDS011;6486;51.034;5.262;2023-04-15T13:15:20;0.93;;;0.80;;
12838;SDS011;6486;51.034;5.262;2023-04-15T13:17:46;0.87;;;0.80;;
12838;SDS011;6486;51.034;5.262;2023-04-15T13:20:12;0.30;;;0.30;;
12838;SDS011;6486;51.034;5.262;2023-04-15T13:22:38;0.20;;;0.20;;
12838;SDS011;6486;51.034;5.262;2023-04-15T13:25:04;0.30;;;0.30;;
12838;SDS011;6486;51.034;5.262;2023-04-15T13:27:31;0.30;;;0.20;;
12838;SDS011;6486;51.034;5.262;2023-04-15T13:29:57;1.43;;;0.60;;
12838;SDS011;6486;51.034;5.262;2023-04-15T13:32:23;1.33;;;0.60;;
12838;SDS011;6486;51.034;5.262;2023-04-15T13:34:49;0.50;;;0.50;;
12838;SDS011;6486;51.034;5.262;2023-04-15T13:37:15;7.80;;;0.60;;
12838;SDS011;6486;51.034;5.262;2023-04-15T13:39:40;2.40;;;0.47;;
12838;SDS011;6486;51.034;5.262;2023-04-15T13:42:06;0.60;;;0.60;;
12838;SDS011;6486;51.034;5.262;2023-04-15T13:44:32;0.17;;;0.17;;
12838;SDS011;6486;51.034;5.262;2023-04-15T13:46:57;0.57;;;0.40;;
12838;SDS011;6486;51.034;5.262;2023-04-15T13:49:23;0.67;;;0.30;;
12838;SDS011;6486;51.034;5.262;2023-04-15T13:51:49;0.70;;;0.50;;
12838;SDS011;6486;51.034;5.262;2023-04-15T13:54:15;1.70;;;0.70;;
12838;SDS011;6486;51.034;5.262;2023-04-15T13:56:40;0.20;;;0.20;;
12838;SDS011;6486;51.034;5.262;2023-04-15T13:59:06;0.20;;;0.20;;
12838;SDS011;6486;51.034;5.262;2023-04-15T14:01:33;1.50;;;0.30;;
12838;SDS011;6486;51.034;5.262;2023-04-15T14:03:59;0.30;;;0.20;;
12838;SDS011;6486;51.034;5.262;2023-04-15T14:06:24;0.20;;;0.20;;
12838;SDS011;6486;51.034;5.262;2023-04-15T14:08:51;0.50;;;0.30;;
12838;SDS011;6486;51.034;5.262;2023-04-15T14:11:17;0.23;;;0.23;;
12838;SDS011;6486;51.034;5.262;2023-04-15T14:13:43;0.37;;;0.37;;
12838;SDS011;6486;51.034;5.262;2023-04-15T14:16:08;0.20;;;0.20;;
12838;SDS011;6486;51.034;5.262;2023-04-15T14:18:34;0.43;;;0.30;;
12838;SDS011;6486;51.034;5.262;2023-04-15T14:21:01;0.23;;;0.20;;
12838;SDS011;6486;51.034;5.262;2023-04-15T14:23:27;0.27;;;0.20;;
12838;SDS011;6486;51.034;5.262;2023-04-15T14:25:53;0.43;;;0.30;;
12838;SDS011;6486;51.034;5.262;2023-04-15T14:28:18;0.30;;;0.30;;
12838;SDS011;6486;51.034;5.262;2023-04-15T14:30:44;0.57;;;0.23;;
12838;SDS011;6486;51.034;5.262;2023-04-15T14:33:10;1.13;;;0.30;;
12838;SDS011;6486;51.034;5.262;2023-04-15T14:35:35;0.53;;;0.50;;
12838;SDS011;6486;51.034;5.262;2023-04-15T14:38:01;0.30;;;0.30;;
12838;SDS011;6486;51.034;5.262;2023-04-15T14:40:27;2.13;;;0.97;;
12838;SDS011;6486;51.034;5.262;2023-04-15T14:42:53;1.03;;;0.40;;
12838;SDS011;6486;51.034;5.262;2023-04-15T14:45:19;0.90;;;0.47;;
12838;SDS011;6486;51.034;5.262;2023-04-15T14:47:44;0.40;;;0.40;;
12838;SDS011;6486;51.034;5.262;2023-04-15T14:50:11;0.50;;;0.27;;
12838;SDS011;6486;51.034;5.262;2023-04-15T14:52:36;0.53;;;0.23;;
12838;SDS011;6486;51.034;5.262;2023-04-15T14:55:06;0.67;;;0.30;;
12838;SDS011;6486;51.034;5.262;2023-04-15T14:57:37;0.57;;;0.57;;
12838;SDS011;6486;51.034;5.262;2023-04-15T15:00:03;0.00;;;0.00;;
12838;SDS011;6486;51.034;5.262;2023-04-15T15:02:31;0.20;;;0.10;;
12838;SDS011;6486;51.034;5.262;2023-04-15T15:04:57;0.20;;;0.20;;
12838;SDS011;6486;51.034;5.262;2023-04-15T15:07:24;2.80;;;1.00;;
12838;SDS011;6486;51.034;5.262;2023-04-15T15:09:50;0.47;;;0.30;;
12838;SDS011;6486;51.034;5.262;2023-04-15T15:12:16;0.10;;;0.10;;
12838;SDS011;6486;51.034;5.262;2023-04-15T15:14:41;0.20;;;0.20;;
12838;SDS011;6486;51.034;5.262;2023-04-15T15:17:08;0.30;;;0.30;;
12838;SDS011;6486;51.034;5.262;2023-04-15T15:19:34;0.20;;;0.20;;
12838;SDS011;6486;51.034;5.262;2023-04-15T15:22:00;1.17;;;0.57;;
12838;SDS011;6486;51.034;5.262;2023-04-15T15:24:25;0.10;;;0.10;;